JIA5526 KSWO-KDFW
Flight info
| Callsign | JIA5526 |
|---|---|
| Flight time | 0h 51m |
| Altitude | 26000 |
| Route | GULLI IBAKE VKTRY2 |
| Aircraft | CRJ7/M-SDFGIRWY/S |
Departure
| Time | 2026-05-05 17:57 |
|---|---|
| Airport | Stillwater Regional Airport (KSWO) |
Arrival
| Time | 2026-05-05 18:48 |
|---|---|
| Airport | Dallas Fort Worth International Airport (KDFW) |
| Time | Latitude | Longitude | Altitude | Speed | Heading |
|---|---|---|---|---|---|
| 2026-05-05 17:42 | 36.15805 | -97.08466 | 981 ft | 0 kts | 285° |
| 2026-05-05 17:43 | 36.15805 | -97.08465 | 981 ft | 0 kts | 285° |
| 2026-05-05 17:51 | 36.15805 | -97.08467 | 981 ft | 1 kts | 274° |
| 2026-05-05 17:51 | 36.15794 | -97.08481 | 982 ft | 4 kts | 200° |
| 2026-05-05 17:51 | 36.15759 | -97.08484 | 986 ft | 6 kts | 178° |
| 2026-05-05 17:52 | 36.15710 | -97.08483 | 984 ft | 8 kts | 191° |
| 2026-05-05 17:52 | 36.15662 | -97.08528 | 982 ft | 10 kts | 205° |
| 2026-05-05 17:52 | 36.15581 | -97.08533 | 983 ft | 13 kts | 179° |
| 2026-05-05 17:52 | 36.15479 | -97.08533 | 978 ft | 16 kts | 180° |
| 2026-05-05 17:53 | 36.15360 | -97.08531 | 979 ft | 18 kts | 179° |
| 2026-05-05 17:53 | 36.15243 | -97.08529 | 980 ft | 10 kts | 179° |
| 2026-05-05 17:53 | 36.15206 | -97.08577 | 973 ft | 9 kts | 266° |
| 2026-05-05 17:53 | 36.15222 | -97.08662 | 982 ft | 8 kts | 335° |
| 2026-05-05 17:54 | 36.15246 | -97.08665 | 978 ft | 0 kts | 359° |
| 2026-05-05 17:56 | 36.15258 | -97.08665 | 977 ft | 11 kts | 0° |
| 2026-05-05 17:56 | 36.15551 | -97.08669 | 977 ft | 76 kts | 359° |
| 2026-05-05 17:57 | 36.16295 | -97.08679 | 998 ft | 132 kts | 359° |
| 2026-05-05 17:57 | 36.17295 | -97.08711 | 1366 ft | 151 kts | 5° |
| 2026-05-05 17:57 | 36.18332 | -97.08741 | 2170 ft | 153 kts | 2° |
| 2026-05-05 17:57 | 36.19476 | -97.08758 | 2649 ft | 173 kts | 3° |
| 2026-05-05 17:58 | 36.20823 | -97.08861 | 2947 ft | 212 kts | 355° |
| 2026-05-05 17:58 | 36.22246 | -97.09689 | 3588 ft | 246 kts | 322° |
| 2026-05-05 17:58 | 36.23233 | -97.11542 | 4310 ft | 273 kts | 290° |
| 2026-05-05 17:58 | 36.23427 | -97.13889 | 5316 ft | 276 kts | 260° |
| 2026-05-05 17:59 | 36.22732 | -97.16048 | 6521 ft | 270 kts | 233° |
| 2026-05-05 17:59 | 36.21319 | -97.17508 | 7453 ft | 266 kts | 205° |
| 2026-05-05 17:59 | 36.19549 | -97.18175 | 8296 ft | 269 kts | 196° |
| 2026-05-05 17:59 | 36.17714 | -97.18680 | 9068 ft | 271 kts | 195° |
| 2026-05-05 18:00 | 36.15851 | -97.19123 | 9845 ft | 273 kts | 195° |
| 2026-05-05 18:00 | 36.13980 | -97.19608 | 10542 ft | 276 kts | 197° |
| 2026-05-05 18:00 | 36.12066 | -97.20121 | 10994 ft | 290 kts | 197° |
| 2026-05-05 18:00 | 36.10032 | -97.20672 | 11276 ft | 308 kts | 197° |
| 2026-05-05 18:01 | 36.07898 | -97.21256 | 11765 ft | 317 kts | 197° |
| 2026-05-05 18:01 | 36.05734 | -97.21859 | 12432 ft | 321 kts | 198° |
| 2026-05-05 18:01 | 36.03546 | -97.22487 | 13086 ft | 324 kts | 198° |
| 2026-05-05 18:01 | 36.01336 | -97.23146 | 13702 ft | 329 kts | 199° |
| 2026-05-05 18:02 | 35.99100 | -97.23809 | 14316 ft | 332 kts | 199° |
| 2026-05-05 18:02 | 35.96846 | -97.24466 | 14963 ft | 334 kts | 199° |
| 2026-05-05 18:02 | 35.94567 | -97.25108 | 15592 ft | 337 kts | 199° |
| 2026-05-05 18:02 | 35.92263 | -97.25736 | 16189 ft | 340 kts | 199° |
| 2026-05-05 18:03 | 35.89944 | -97.26367 | 16784 ft | 342 kts | 199° |
| 2026-05-05 18:03 | 35.87612 | -97.27008 | 17368 ft | 345 kts | 200° |
| 2026-05-05 18:03 | 35.85263 | -97.27657 | 17920 ft | 348 kts | 200° |
| 2026-05-05 18:03 | 35.82895 | -97.28301 | 18433 ft | 350 kts | 200° |
| 2026-05-05 18:04 | 35.80512 | -97.28958 | 18908 ft | 352 kts | 201° |
| 2026-05-05 18:04 | 35.78114 | -97.29624 | 19376 ft | 354 kts | 201° |
| 2026-05-05 18:04 | 35.75700 | -97.30291 | 19860 ft | 357 kts | 201° |
| 2026-05-05 18:04 | 35.73303 | -97.30952 | 20309 ft | 359 kts | 201° |
| 2026-05-05 18:05 | 35.70825 | -97.31635 | 20775 ft | 361 kts | 201° |
| 2026-05-05 18:05 | 35.68397 | -97.32303 | 21209 ft | 364 kts | 201° |
| 2026-05-05 18:05 | 35.65921 | -97.32980 | 21621 ft | 366 kts | 201° |
| 2026-05-05 18:05 | 35.63430 | -97.33665 | 22029 ft | 368 kts | 201° |
| 2026-05-05 18:06 | 35.60927 | -97.34353 | 22431 ft | 370 kts | 201° |
| 2026-05-05 18:06 | 35.60075 | -97.34586 | 22574 ft | 371 kts | 201° |
| 2026-05-05 18:06 | 35.55872 | -97.35737 | 23241 ft | 374 kts | 201° |
| 2026-05-05 18:06 | 35.53323 | -97.36436 | 23607 ft | 376 kts | 201° |
| 2026-05-05 18:07 | 35.50769 | -97.37130 | 23970 ft | 377 kts | 202° |
| 2026-05-05 18:07 | 35.48207 | -97.37825 | 24324 ft | 378 kts | 202° |
| 2026-05-05 18:07 | 35.45639 | -97.38522 | 24682 ft | 378 kts | 202° |
| 2026-05-05 18:07 | 35.43065 | -97.39223 | 25014 ft | 380 kts | 202° |
| 2026-05-05 18:08 | 35.40484 | -97.39928 | 25338 ft | 381 kts | 203° |
| 2026-05-05 18:08 | 35.37886 | -97.40636 | 25591 ft | 384 kts | 203° |
| 2026-05-05 18:08 | 35.35256 | -97.41359 | 25699 ft | 391 kts | 203° |
| 2026-05-05 18:08 | 35.32577 | -97.42098 | 25757 ft | 399 kts | 203° |
| 2026-05-05 18:09 | 35.29841 | -97.42851 | 25767 ft | 407 kts | 202° |
| 2026-05-05 18:09 | 35.27048 | -97.43612 | 25779 ft | 416 kts | 202° |
| 2026-05-05 18:09 | 35.24194 | -97.44388 | 25789 ft | 424 kts | 202° |
| 2026-05-05 18:09 | 35.21284 | -97.45179 | 25791 ft | 432 kts | 202° |
| 2026-05-05 18:10 | 35.18324 | -97.45982 | 25794 ft | 440 kts | 202° |
| 2026-05-05 18:10 | 35.15313 | -97.46798 | 25791 ft | 447 kts | 202° |
| 2026-05-05 18:10 | 35.12256 | -97.47626 | 25786 ft | 453 kts | 201° |
| 2026-05-05 18:10 | 35.09157 | -97.48467 | 25785 ft | 459 kts | 201° |
| 2026-05-05 18:11 | 35.06024 | -97.49315 | 25775 ft | 464 kts | 201° |
| 2026-05-05 18:11 | 35.02846 | -97.50142 | 25766 ft | 471 kts | 199° |
| 2026-05-05 18:11 | 34.99560 | -97.50685 | 25754 ft | 481 kts | 195° |
| 2026-05-05 18:11 | 34.96195 | -97.50978 | 25746 ft | 486 kts | 192° |
| 2026-05-05 18:12 | 34.92887 | -97.51148 | 25735 ft | 466 kts | 192° |
| 2026-05-05 18:12 | 34.90768 | -97.51265 | 25730 ft | 454 kts | 193° |
| 2026-05-05 18:12 | 34.86647 | -97.51602 | 25727 ft | 435 kts | 194° |
| 2026-05-05 18:12 | 34.84664 | -97.51784 | 25721 ft | 428 kts | 194° |
| 2026-05-05 18:13 | 34.80760 | -97.52121 | 25721 ft | 414 kts | 194° |
| 2026-05-05 18:13 | 34.78868 | -97.52281 | 25724 ft | 408 kts | 195° |
| 2026-05-05 18:13 | 34.76066 | -97.52520 | 25722 ft | 400 kts | 195° |
| 2026-05-05 18:13 | 34.73319 | -97.52753 | 25721 ft | 392 kts | 195° |
| 2026-05-05 18:14 | 34.70619 | -97.52984 | 25721 ft | 389 kts | 195° |
| 2026-05-05 18:14 | 34.67919 | -97.53213 | 25727 ft | 389 kts | 195° |
| 2026-05-05 18:14 | 34.65226 | -97.53441 | 25725 ft | 387 kts | 195° |
| 2026-05-05 18:14 | 34.62552 | -97.53669 | 25722 ft | 384 kts | 195° |
| 2026-05-05 18:15 | 34.59898 | -97.53895 | 25719 ft | 380 kts | 196° |
| 2026-05-05 18:15 | 34.57267 | -97.54119 | 25708 ft | 378 kts | 196° |
| 2026-05-05 18:15 | 34.54653 | -97.54341 | 25711 ft | 375 kts | 196° |
| 2026-05-05 18:15 | 34.52058 | -97.54561 | 25706 ft | 373 kts | 196° |
| 2026-05-05 18:16 | 34.49477 | -97.54780 | 25701 ft | 371 kts | 196° |
| 2026-05-05 18:16 | 34.46910 | -97.54997 | 25704 ft | 369 kts | 196° |
| 2026-05-05 18:16 | 34.44357 | -97.55213 | 25707 ft | 367 kts | 196° |
| 2026-05-05 18:16 | 34.41818 | -97.55427 | 25700 ft | 365 kts | 196° |
| 2026-05-05 18:17 | 34.39292 | -97.55641 | 25699 ft | 363 kts | 196° |
| 2026-05-05 18:17 | 34.36778 | -97.55852 | 25702 ft | 361 kts | 196° |
| 2026-05-05 18:17 | 34.34275 | -97.56065 | 25701 ft | 360 kts | 196° |
| 2026-05-05 18:17 | 34.31785 | -97.56274 | 25700 ft | 358 kts | 196° |
| 2026-05-05 18:18 | 34.29301 | -97.56484 | 25701 ft | 357 kts | 196° |
| 2026-05-05 18:18 | 34.26825 | -97.56693 | 25704 ft | 356 kts | 196° |
| 2026-05-05 18:18 | 34.24348 | -97.56900 | 25698 ft | 359 kts | 196° |
| 2026-05-05 18:18 | 34.21841 | -97.57108 | 25701 ft | 364 kts | 196° |
| 2026-05-05 18:19 | 34.19280 | -97.57330 | 25706 ft | 373 kts | 196° |
| 2026-05-05 18:19 | 34.16668 | -97.57578 | 25705 ft | 381 kts | 196° |
| 2026-05-05 18:19 | 34.13998 | -97.57842 | 25712 ft | 389 kts | 196° |
| 2026-05-05 18:19 | 34.11274 | -97.58106 | 25707 ft | 397 kts | 195° |
| 2026-05-05 18:20 | 34.08493 | -97.58348 | 25711 ft | 405 kts | 195° |
| 2026-05-05 18:20 | 34.05656 | -97.58589 | 25714 ft | 412 kts | 195° |
| 2026-05-05 18:20 | 34.02790 | -97.58827 | 25713 ft | 414 kts | 195° |
| 2026-05-05 18:20 | 33.99918 | -97.59070 | 25703 ft | 414 kts | 195° |
| 2026-05-05 18:21 | 33.97044 | -97.59317 | 25702 ft | 414 kts | 195° |
| 2026-05-05 18:21 | 33.94167 | -97.59556 | 25702 ft | 415 kts | 195° |
| 2026-05-05 18:21 | 33.91328 | -97.59793 | 25699 ft | 415 kts | 195° |
| 2026-05-05 18:21 | 33.88410 | -97.60038 | 25700 ft | 414 kts | 195° |
| 2026-05-05 18:22 | 33.85583 | -97.60270 | 25639 ft | 413 kts | 195° |
| 2026-05-05 18:22 | 33.82748 | -97.60503 | 25052 ft | 400 kts | 195° |
| 2026-05-05 18:22 | 33.80026 | -97.60709 | 24496 ft | 385 kts | 195° |
| 2026-05-05 18:22 | 33.77394 | -97.60885 | 23950 ft | 372 kts | 195° |
| 2026-05-05 18:23 | 33.74831 | -97.61076 | 23195 ft | 366 kts | 195° |
| 2026-05-05 18:23 | 33.72289 | -97.61288 | 22331 ft | 366 kts | 195° |
| 2026-05-05 18:23 | 33.69759 | -97.61503 | 21495 ft | 363 kts | 195° |
| 2026-05-05 18:23 | 33.67245 | -97.61712 | 20687 ft | 361 kts | 194° |
| 2026-05-05 18:24 | 33.64755 | -97.61916 | 19888 ft | 356 kts | 194° |
| 2026-05-05 18:24 | 33.62305 | -97.62129 | 19114 ft | 350 kts | 194° |
| 2026-05-05 18:24 | 33.59894 | -97.62358 | 18359 ft | 345 kts | 193° |
| 2026-05-05 18:24 | 33.57514 | -97.62587 | 17567 ft | 341 kts | 193° |
| 2026-05-05 18:25 | 33.55237 | -97.62786 | 16608 ft | 307 kts | 192° |
| 2026-05-05 18:25 | 33.53823 | -97.62887 | 16129 ft | 308 kts | 192° |
| 2026-05-05 18:25 | 33.50949 | -97.63117 | 15074 ft | 311 kts | 193° |
| 2026-05-05 18:25 | 33.48784 | -97.63300 | 14316 ft | 313 kts | 192° |
| 2026-05-05 18:26 | 33.46612 | -97.63491 | 13568 ft | 313 kts | 192° |
| 2026-05-05 18:26 | 33.44438 | -97.63689 | 12756 ft | 313 kts | 192° |
| 2026-05-05 18:26 | 33.42263 | -97.63886 | 11962 ft | 314 kts | 192° |
| 2026-05-05 18:26 | 33.40066 | -97.63891 | 11179 ft | 323 kts | 176° |
| 2026-05-05 18:27 | 33.37969 | -97.62771 | 10420 ft | 340 kts | 151° |
| 2026-05-05 18:27 | 33.36186 | -97.60879 | 9664 ft | 347 kts | 137° |
| 2026-05-05 18:27 | 33.34680 | -97.58616 | 8868 ft | 348 kts | 130° |
| 2026-05-05 18:27 | 33.33305 | -97.56237 | 8100 ft | 346 kts | 128° |
| 2026-05-05 18:28 | 33.30623 | -97.51559 | 6948 ft | 325 kts | 128° |
| 2026-05-05 18:28 | 33.29357 | -97.49450 | 6948 ft | 307 kts | 130° |
| 2026-05-05 18:28 | 33.28076 | -97.47374 | 6956 ft | 313 kts | 130° |
| 2026-05-05 18:29 | 33.27081 | -97.45044 | 6947 ft | 321 kts | 105° |
| 2026-05-05 18:29 | 33.26784 | -97.42388 | 6880 ft | 324 kts | 94° |
| 2026-05-05 18:29 | 33.26699 | -97.39731 | 6636 ft | 317 kts | 91° |
| 2026-05-05 18:29 | 33.26649 | -97.37121 | 6347 ft | 312 kts | 91° |
| 2026-05-05 18:30 | 33.26592 | -97.34554 | 6065 ft | 307 kts | 92° |
| 2026-05-05 18:30 | 33.26506 | -97.32026 | 5765 ft | 302 kts | 93° |
| 2026-05-05 18:30 | 33.26381 | -97.29541 | 5476 ft | 297 kts | 94° |
| 2026-05-05 18:30 | 33.26253 | -97.27095 | 5185 ft | 293 kts | 95° |
| 2026-05-05 18:31 | 33.26119 | -97.24692 | 4964 ft | 286 kts | 95° |
| 2026-05-05 18:31 | 33.25766 | -97.22412 | 4865 ft | 273 kts | 111° |
| 2026-05-05 18:31 | 33.25111 | -97.20320 | 4821 ft | 271 kts | 114° |
| 2026-05-05 18:31 | 33.24421 | -97.18167 | 4796 ft | 284 kts | 112° |
| 2026-05-05 18:32 | 33.23782 | -97.15905 | 4797 ft | 290 kts | 109° |
| 2026-05-05 18:32 | 33.23203 | -97.13621 | 4797 ft | 285 kts | 109° |
| 2026-05-05 18:32 | 33.22653 | -97.11403 | 4794 ft | 280 kts | 109° |
| 2026-05-05 18:32 | 33.22093 | -97.09197 | 4781 ft | 275 kts | 110° |
| 2026-05-05 18:33 | 33.21520 | -97.07032 | 4774 ft | 271 kts | 110° |
| 2026-05-05 18:33 | 33.20953 | -97.04901 | 4752 ft | 267 kts | 111° |
| 2026-05-05 18:33 | 33.20355 | -97.02827 | 4742 ft | 261 kts | 121° |
| 2026-05-05 18:33 | 33.19181 | -97.01332 | 4747 ft | 240 kts | 159° |
| 2026-05-05 18:34 | 33.17606 | -97.00796 | 4783 ft | 236 kts | 178° |
| 2026-05-05 18:34 | 33.15958 | -97.00669 | 4824 ft | 240 kts | 186° |
| 2026-05-05 18:34 | 33.14269 | -97.00704 | 4797 ft | 243 kts | 188° |
| 2026-05-05 18:34 | 33.12587 | -97.00789 | 4562 ft | 243 kts | 188° |
| 2026-05-05 18:35 | 33.10880 | -97.00876 | 4312 ft | 245 kts | 187° |
| 2026-05-05 18:35 | 33.09197 | -97.00905 | 4149 ft | 239 kts | 185° |
| 2026-05-05 18:35 | 33.07556 | -97.00906 | 3997 ft | 235 kts | 185° |
| 2026-05-05 18:35 | 33.05942 | -97.00912 | 3860 ft | 229 kts | 186° |
| 2026-05-05 18:36 | 33.04366 | -97.00923 | 3696 ft | 225 kts | 186° |
| 2026-05-05 18:36 | 33.02825 | -97.00929 | 3423 ft | 218 kts | 185° |
| 2026-05-05 18:36 | 33.01380 | -97.00895 | 3124 ft | 199 kts | 185° |
| 2026-05-05 18:36 | 33.00047 | -97.00901 | 2777 ft | 185 kts | 186° |
| 2026-05-05 18:37 | 32.98793 | -97.00927 | 2492 ft | 178 kts | 185° |
| 2026-05-05 18:37 | 32.97582 | -97.00932 | 2277 ft | 169 kts | 184° |
| 2026-05-05 18:37 | 32.96444 | -97.00929 | 2048 ft | 158 kts | 186° |
| 2026-05-05 18:37 | 32.95391 | -97.00940 | 1913 ft | 146 kts | 185° |
| 2026-05-05 18:38 | 32.94376 | -97.00953 | 1664 ft | 145 kts | 184° |
| 2026-05-05 18:38 | 32.93433 | -97.00943 | 1493 ft | 127 kts | 186° |
| 2026-05-05 18:38 | 32.92554 | -97.00966 | 1221 ft | 128 kts | 181° |
| 2026-05-05 18:38 | 32.91628 | -97.00968 | 1033 ft | 139 kts | 183° |
| 2026-05-05 18:39 | 32.90653 | -97.00975 | 825 ft | 133 kts | 182° |
| 2026-05-05 18:39 | 32.89813 | -97.00981 | 637 ft | 111 kts | 185° |
| 2026-05-05 18:39 | 32.89051 | -97.00985 | 624 ft | 109 kts | 184° |
| 2026-05-05 18:39 | 32.88271 | -97.00994 | 850 ft | 119 kts | 185° |
| 2026-05-05 18:40 | 32.87366 | -97.01031 | 1181 ft | 144 kts | 188° |
| 2026-05-05 18:40 | 32.86257 | -97.01111 | 1678 ft | 165 kts | 188° |
| 2026-05-05 18:40 | 32.85075 | -97.01226 | 2254 ft | 176 kts | 187° |
| 2026-05-05 18:40 | 32.83779 | -97.01261 | 2558 ft | 197 kts | 170° |
| 2026-05-05 18:41 | 32.82607 | -97.00294 | 2720 ft | 226 kts | 127° |
| 2026-05-05 18:41 | 32.82174 | -96.98408 | 2776 ft | 254 kts | 88° |
| 2026-05-05 18:41 | 32.82768 | -96.96380 | 2828 ft | 272 kts | 53° |
| 2026-05-05 18:41 | 32.84202 | -96.95021 | 2845 ft | 260 kts | 17° |
| 2026-05-05 18:42 | 32.85930 | -96.94744 | 2855 ft | 247 kts | 354° |
| 2026-05-05 18:42 | 32.87648 | -96.94683 | 2836 ft | 249 kts | 359° |
| 2026-05-05 18:42 | 32.89391 | -96.94564 | 2783 ft | 253 kts | 360° |
| 2026-05-05 18:42 | 32.91138 | -96.94420 | 2660 ft | 251 kts | 359° |
| 2026-05-05 18:43 | 32.92876 | -96.94312 | 2496 ft | 249 kts | 358° |
| 2026-05-05 18:43 | 32.94593 | -96.94274 | 2353 ft | 245 kts | 356° |
| 2026-05-05 18:43 | 32.96272 | -96.94270 | 2205 ft | 235 kts | 355° |
| 2026-05-05 18:43 | 32.97855 | -96.94280 | 2154 ft | 224 kts | 354° |
| 2026-05-05 18:44 | 32.99263 | -96.94809 | 2113 ft | 204 kts | 313° |
| 2026-05-05 18:44 | 32.99884 | -96.96102 | 2130 ft | 170 kts | 275° |
| 2026-05-05 18:44 | 32.99987 | -96.97446 | 2117 ft | 157 kts | 260° |
| 2026-05-05 18:44 | 32.99900 | -96.98674 | 2101 ft | 144 kts | 257° |
| 2026-05-05 18:45 | 32.99532 | -96.99674 | 2033 ft | 130 kts | 213° |
| 2026-05-05 18:45 | 32.98719 | -97.00153 | 2076 ft | 133 kts | 208° |
| 2026-05-05 18:45 | 32.97851 | -97.00624 | 1958 ft | 137 kts | 205° |
| 2026-05-05 18:45 | 32.96965 | -97.00898 | 1837 ft | 129 kts | 190° |
| 2026-05-05 18:46 | 32.96078 | -97.00937 | 1714 ft | 127 kts | 185° |
| 2026-05-05 18:46 | 32.95180 | -97.00943 | 1637 ft | 132 kts | 181° |
| 2026-05-05 18:46 | 32.94242 | -97.00952 | 1516 ft | 136 kts | 187° |
| 2026-05-05 18:46 | 32.93299 | -97.00953 | 1380 ft | 134 kts | 186° |
| 2026-05-05 18:47 | 32.92379 | -97.00966 | 1178 ft | 131 kts | 181° |
| 2026-05-05 18:47 | 32.91454 | -97.00968 | 986 ft | 133 kts | 184° |
| 2026-05-05 18:47 | 32.90534 | -97.00976 | 794 ft | 130 kts | 182° |
| 2026-05-05 18:47 | 32.89667 | -97.00982 | 629 ft | 118 kts | 184° |
| 2026-05-05 18:48 | 32.88949 | -97.00988 | 618 ft | 82 kts | 180° |
| 2026-05-05 18:48 | 32.88513 | -97.00988 | 619 ft | 51 kts | 180° |
| 2026-05-05 18:48 | 32.88203 | -97.00991 | 617 ft | 36 kts | 185° |
| 2026-05-05 18:48 | 32.88036 | -97.01045 | 614 ft | 20 kts | 204° |
| 2026-05-05 18:49 | 32.87945 | -97.01106 | 614 ft | 13 kts | 210° |
| 2026-05-05 18:49 | 32.87870 | -97.01157 | 618 ft | 12 kts | 210° |
| 2026-05-05 18:49 | 32.87848 | -97.01253 | 614 ft | 18 kts | 270° |
| 2026-05-05 18:49 | 32.87848 | -97.01454 | 614 ft | 30 kts | 270° |
| 2026-05-05 18:50 | 32.87849 | -97.01722 | 614 ft | 32 kts | 269° |
| 2026-05-05 18:50 | 32.87850 | -97.01986 | 614 ft | 32 kts | 268° |
| 2026-05-05 18:50 | 32.87858 | -97.02242 | 618 ft | 31 kts | 282° |
| 2026-05-05 18:50 | 32.87894 | -97.02488 | 614 ft | 30 kts | 274° |
| 2026-05-05 18:51 | 32.87907 | -97.02733 | 623 ft | 29 kts | 277° |
| 2026-05-05 18:51 | 32.87899 | -97.02971 | 614 ft | 29 kts | 270° |
| 2026-05-05 18:51 | 32.87900 | -97.03205 | 620 ft | 28 kts | 270° |
| 2026-05-05 18:51 | 32.87928 | -97.03363 | 619 ft | 18 kts | 325° |
| 2026-05-05 18:52 | 32.88058 | -97.03375 | 621 ft | 21 kts | 359° |
| 2026-05-05 18:52 | 32.88215 | -97.03375 | 619 ft | 24 kts | 0° |
| 2026-05-05 18:52 | 32.88396 | -97.03374 | 626 ft | 27 kts | 1° |
| 2026-05-05 18:52 | 32.88498 | -97.03458 | 614 ft | 15 kts | 286° |
| 2026-05-05 18:53 | 32.88585 | -97.03490 | 621 ft | 15 kts | 346° |
| 2026-05-05 18:53 | 32.88672 | -97.03498 | 614 ft | 9 kts | 25° |
| 2026-05-05 18:53 | 32.88697 | -97.03484 | 614 ft | 0 kts | 24° |